CheckWX is a tool to help pilots better visualize weather data.  It is not intended as a substitute for an official pre-flight weather briefing.

08:13:31 UTC

KEVV METAR
Evansville Regional Airport
Evansville, Indiana, USA
Current

20 mins ago

KEVV 220754Z AUTO 02007KT 10SM CLR 04/00 A3028 RMK AO2 SLP257 T00390000
Observed
Feb-22 @ 07:54 UTC
Wind
  • 020° at 7 KTS
Visibility
10 SM
Flight Rules
VFR
Cloud Levels
  • Clear skies
Temperature
C / 39°F
Dewpoint
C / 32°F
Humidity
75%
Altimeter
30.28" Hg
Pressure
1025.7 hPa
Previous

1 hour ago

KEVV 220654Z AUTO 02008KT 10SM CLR 04/00 A3028 RMK AO2 SLP255 T00440000
Observed
Feb-22 @ 06:54 UTC
Wind
  • 020° at 8 KTS
Visibility
10 SM
Flight Rules
VFR
Cloud Levels
  • Clear skies
Temperature
C / 39°F
Dewpoint
C / 32°F
Humidity
75%
Altimeter
30.28" Hg
Pressure
1025.5 hPa
Previous

2 hours ago

KEVV 220554Z AUTO 04006KT 10SM CLR 04/01 A3026 RMK AO2 SLP250 T00440006 10056 20039 400781017 55004
Observed
Feb-22 @ 05:54 UTC
Wind
  • 040° at 6 KTS
Visibility
10 SM
Flight Rules
VFR
Cloud Levels
  • Clear skies
Temperature
C / 39°F
Dewpoint
C / 34°F
Humidity
81%
Altimeter
30.26" Hg
Pressure
1025 hPa